Time;durP1;ratioP1;P1;durP2;ratioP2;P2;SDS_P1;SDS_P2;PMS_P1;PMS_P2;Temp;Humidity;BMP_temperature;BMP_pressure;BME280_temperature;BME280_humidity;BME280_pressure;Samples;Min_cycle;Max_cycle;Signal;HPM_P1;HPM_P2
2021/10/02 00:47:45;;;;;;;6.20;4.90;;;;;;;8.68;100.00;95531.38;10280508;28;20035;-70
2021/10/02 00:52:46;;;;;;;10.60;4.70;;;;;;;8.57;100.00;95526.06;10278185;28;20278;-73
2021/10/02 00:57:47;;;;;;;9.02;4.82;;;;;;;8.63;100.00;95531.25;10272950;28;20034;-72
2021/10/02 01:02:57;;;;;;;10.25;5.50;;;;;;;8.61;100.00;95519.16;10238312;28;20497;-74
2021/10/02 01:08:34;;;;;;;8.95;4.38;;;;;;;8.49;100.00;95514.69;10230845;29;20035;-74
2021/10/02 01:13:58;;;;;;;9.10;4.60;;;;;;;8.45;100.00;95513.53;10237621;28;20031;-73
2021/10/02 01:19:04;;;;;;;5.80;4.53;;;;;;;8.25;100.00;95513.13;10238051;29;20118;-77
2021/10/02 01:24:26;;;;;;;5.28;3.97;;;;;;;8.21;100.00;95507.44;10238386;29;20035;-70
2021/10/02 01:29:29;;;;;;;5.20;4.07;;;;;;;8.15;100.00;95495.00;10213372;29;20549;-75
2021/10/02 01:34:46;;;;;;;14.02;4.57;;;;;;;8.15;100.00;95489.63;10198740;29;20055;-75
2021/10/02 01:50:31;;;;;;;9.48;4.13;;;;;;;7.91;100.00;95484.38;10244835;28;20031;-70
2021/10/02 01:55:35;;;;;;;7.88;4.30;;;;;;;7.81;100.00;95482.28;10236211;28;20042;-70
2021/10/02 02:00:41;;;;;;;7.25;4.57;;;;;;;7.74;100.00;95486.16;10237724;28;20031;-68
2021/10/02 02:05:43;;;;;;;9.85;4.65;;;;;;;7.79;100.00;95483.59;10252112;28;20038;-72
2021/10/02 02:10:45;;;;;;;7.55;5.10;;;;;;;7.76;100.00;95471.50;10238085;28;20074;-73
2021/10/02 02:15:48;;;;;;;8.27;4.30;;;;;;;7.77;100.00;95478.50;10237723;28;20112;-71
2021/10/02 02:21:07;;;;;;;4.90;3.70;;;;;;;7.76;100.00;95473.34;10236880;29;20027;-73
2021/10/02 02:26:09;;;;;;;10.02;4.93;;;;;;;7.66;100.00;95481.97;10219559;29;20043;-72
2021/10/02 02:31:10;;;;;;;7.60;4.63;;;;;;;7.62;100.00;95481.66;10235673;29;20134;-75
2021/10/02 02:36:11;;;;;;;10.00;5.15;;;;;;;7.39;100.00;95485.16;10236833;28;20118;-67
2021/10/02 02:41:12;;;;;;;4.57;3.93;;;;;;;7.27;100.00;95487.88;10235831;29;20031;-75
2021/10/02 02:46:23;;;;;;;8.45;4.68;;;;;;;7.13;100.00;95487.28;10237353;28;20274;-73
2021/10/02 02:51:28;;;;;;;12.85;5.05;;;;;;;6.83;100.00;95485.50;10243349;29;20089;-72
2021/10/02 02:56:43;;;;;;;6.18;4.63;;;;;;;6.58;100.00;95482.25;10242541;28;20024;-69
2021/10/02 03:01:46;;;;;;;8.85;5.18;;;;;;;6.58;100.00;95491.06;10242253;28;20030;-70
2021/10/02 03:06:50;;;;;;;7.05;4.45;;;;;;;6.61;100.00;95485.25;10226730;29;20039;-67
2021/10/02 03:11:52;;;;;;;8.60;4.55;;;;;;;6.59;100.00;95486.53;10241841;29;20038;-68
2021/10/02 03:16:54;;;;;;;6.88;4.57;;;;;;;6.51;100.00;95479.66;10242321;28;20031;-74
2021/10/02 03:21:56;;;;;;;8.02;4.60;;;;;;;6.26;100.00;95477.97;10222297;29;20035;-70
2021/10/02 03:27:01;;;;;;;6.65;4.82;;;;;;;5.99;100.00;95481.00;10241485;28;20054;-66
2021/10/02 03:32:05;;;;;;;9.73;5.75;;;;;;;5.81;100.00;95476.47;10240514;28;20051;-74
2021/10/02 03:37:05;;;;;;;6.55;4.75;;;;;;;5.75;100.00;95476.56;10241738;28;20060;-71
2021/10/02 03:42:12;;;;;;;6.95;4.72;;;;;;;5.72;100.00;95471.69;10240853;28;20594;-67
2021/10/02 03:47:16;;;;;;;13.60;5.32;;;;;;;5.87;100.00;95472.09;10201428;29;20110;-66
2021/10/02 03:52:17;;;;;;;9.05;5.50;;;;;;;5.93;100.00;95462.38;10233083;29;20050;-69
2021/10/02 03:57:17;;;;;;;10.10;5.20;;;;;;;6.02;100.00;95465.59;10240202;28;20034;-75
2021/10/02 04:02:18;;;;;;;8.37;4.57;;;;;;;6.01;100.00;95461.28;10240447;29;20065;-74
2021/10/02 04:07:18;;;;;;;7.55;4.78;;;;;;;5.98;100.00;95467.88;10240960;28;20314;-73
2021/10/02 04:12:18;;;;;;;7.93;6.55;;;;;;;5.94;100.00;95467.47;10240306;28;20124;-75
2021/10/02 04:17:19;;;;;;;7.70;5.65;;;;;;;5.93;100.00;95471.22;10239296;28;20110;-68
2021/10/02 04:22:19;;;;;;;11.10;5.33;;;;;;;5.95;100.00;95470.97;10256009;28;20031;-66
2021/10/02 04:27:20;;;;;;;6.97;5.43;;;;;;;5.92;100.00;95458.91;10239274;28;20315;-68
2021/10/02 04:32:20;;;;;;;7.13;5.15;;;;;;;5.93;100.00;95463.22;10236707;29;20086;-70
2021/10/02 04:37:21;;;;;;;10.32;5.63;;;;;;;6.01;100.00;95470.09;10239349;28;20409;-67
2021/10/02 04:42:21;;;;;;;13.00;5.83;;;;;;;6.10;100.00;95475.97;10235358;29;20024;-74
2021/10/02 04:47:23;;;;;;;7.18;4.78;;;;;;;6.14;100.00;95474.47;10229835;29;20700;-69
2021/10/02 04:52:23;;;;;;;7.05;4.90;;;;;;;6.19;100.00;95479.91;10198938;29;20028;-71
2021/10/02 04:57:24;;;;;;;13.17;5.83;;;;;;;6.21;100.00;95475.19;10198455;29;20031;-72
2021/10/02 05:02:24;;;;;;;11.38;5.38;;;;;;;6.26;100.00;95483.28;10213281;29;20712;-68
2021/10/02 05:07:25;;;;;;;11.60;5.55;;;;;;;6.29;100.00;95477.53;10237501;28;20489;-69
2021/10/02 05:12:25;;;;;;;7.85;5.53;;;;;;;6.28;100.00;95483.06;10238276;28;20058;-70
2021/10/02 05:17:26;;;;;;;7.00;5.40;;;;;;;6.35;100.00;95486.47;10238666;28;20023;-71
2021/10/02 05:22:26;;;;;;;7.60;5.38;;;;;;;6.39;100.00;95482.31;10237285;28;20031;-73
2021/10/02 05:27:26;;;;;;;18.00;5.65;;;;;;;6.58;100.00;95476.91;10237135;28;20061;-72
2021/10/02 05:32:27;;;;;;;7.60;5.10;;;;;;;6.75;100.00;95485.84;10236464;28;20081;-71
2021/10/02 05:37:27;;;;;;;8.63;5.25;;;;;;;7.00;100.00;95487.50;10238399;28;20085;-71
2021/10/02 05:42:28;;;;;;;8.13;5.30;;;;;;;7.29;100.00;95491.09;10237324;29;20030;-75
2021/10/02 05:47:28;;;;;;;8.20;5.67;;;;;;;7.42;100.00;95489.25;10236223;28;20287;-68
2021/10/02 05:52:29;;;;;;;9.25;5.63;;;;;;;7.70;100.00;95501.88;10235898;28;20671;-69
2021/10/02 05:57:29;;;;;;;9.10;5.50;;;;;;;7.91;100.00;95495.09;10252352;28;20023;-70
2021/10/02 06:02:29;;;;;;;9.50;5.15;;;;;;;8.16;100.00;95499.31;10236320;28;20105;-71
2021/10/02 06:07:30;;;;;;;10.37;5.57;;;;;;;8.48;100.00;95501.53;10252235;28;20031;-72
2021/10/02 06:12:33;;;;;;;8.70;5.00;;;;;;;8.99;100.00;95497.03;10236395;28;20279;-72
2021/10/02 06:17:34;;;;;;;12.65;4.97;;;;;;;9.53;100.00;95495.66;10235723;29;20766;-70
2021/10/02 06:22:34;;;;;;;9.85;4.70;;;;;;;10.15;100.00;95499.13;10240703;28;20121;-71
2021/10/02 06:27:36;;;;;;;8.73;5.20;;;;;;;10.94;100.00;95495.09;10243760;28;20634;-73
2021/10/02 06:32:36;;;;;;;8.68;4.25;;;;;;;11.52;100.00;95505.19;10242533;28;20385;-76
2021/10/02 06:37:37;;;;;;;7.40;3.92;;;;;;;11.96;93.37;95503.03;10259636;28;20057;-72
2021/10/02 06:42:37;;;;;;;9.25;4.68;;;;;;;12.16;96.50;95500.69;10243493;28;20027;-74
2021/10/02 06:47:38;;;;;;;5.10;4.03;;;;;;;11.93;88.24;95503.53;10239123;28;20030;-73
2021/10/02 06:52:38;;;;;;;11.43;4.25;;;;;;;12.09;100.00;95495.53;10234724;29;20058;-75
2021/10/02 06:57:39;;;;;;;8.32;4.28;;;;;;;12.03;94.24;95497.41;10203261;29;20470;-74
2021/10/02 07:02:44;;;;;;;9.73;4.60;;;;;;;12.13;92.10;95500.13;10213575;29;20044;-69
2021/10/02 07:07:44;;;;;;;11.70;5.97;;;;;;;12.22;89.73;95505.00;10223998;29;20286;-70
2021/10/02 07:12:45;;;;;;;7.35;5.00;;;;;;;13.08;85.91;95494.66;10241429;28;20034;-71
2021/10/02 07:17:45;;;;;;;18.60;5.90;;;;;;;14.07;78.63;95490.72;10235771;28;20031;-68
2021/10/02 07:22:47;;;;;;;8.13;5.55;;;;;;;13.89;84.12;95484.00;10217343;29;20358;-69
2021/10/02 07:27:47;;;;;;;17.92;6.13;;;;;;;13.82;81.77;95489.69;10234204;29;20039;-68
2021/10/02 07:32:48;;;;;;;11.07;4.80;;;;;;;14.09;83.34;95488.53;10240141;28;20054;-75
2021/10/02 07:37:50;;;;;;;8.05;4.88;;;;;;;15.05;63.60;95485.56;10238769;29;20298;-72
2021/10/02 07:42:55;;;;;;;7.38;4.45;;;;;;;14.77;63.27;95476.28;10238749;28;20054;-70
2021/10/02 07:47:57;;;;;;;8.77;4.00;;;;;;;15.54;59.51;95470.22;10226702;28;20082;-75
2021/10/02 07:52:58;;;;;;;9.88;3.78;;;;;;;16.15;54.73;95467.97;10234344;28;20035;-72
2021/10/02 07:57:59;;;;;;;11.88;4.43;;;;;;;16.73;54.45;95464.16;10216564;29;20035;-72
2021/10/02 08:02:59;;;;;;;11.68;4.88;;;;;;;16.66;54.09;95459.13;10231403;29;20465;-76
2021/10/02 08:08:01;;;;;;;8.15;3.30;;;;;;;17.13;51.46;95459.22;10227699;28;20391;-70
2021/10/02 08:13:02;;;;;;;6.80;2.67;;;;;;;18.82;44.72;95457.03;10199547;29;20035;-70
2021/10/02 08:18:04;;;;;;;8.65;3.03;;;;;;;20.88;40.14;95443.34;10204595;29;20326;-69
2021/10/02 08:23:05;;;;;;;5.97;3.60;;;;;;;23.31;35.84;95433.53;10234700;29;20480;-74
2021/10/02 08:28:06;;;;;;;5.38;2.70;;;;;;;23.04;35.52;95438.44;10235972;29;20033;-73
2021/10/02 08:33:07;;;;;;;3.88;2.63;;;;;;;22.30;37.13;95437.97;10237267;29;20057;-77
2021/10/02 08:38:08;;;;;;;3.95;2.80;;;;;;;21.08;38.82;95430.16;10239265;28;20086;-70
2021/10/02 08:43:11;;;;;;;6.78;3.22;;;;;;;19.25;42.59;95440.22;10236654;28;20034;-73
2021/10/02 08:48:18;;;;;;;7.22;2.55;;;;;;;18.88;43.41;95433.22;10239628;28;20038;-76
2021/10/02 08:53:19;;;;;;;3.13;2.75;;;;;;;18.57;45.08;95426.56;10237923;29;20026;-69
2021/10/02 08:58:20;;;;;;;6.50;2.25;;;;;;;18.42;44.20;95418.75;10238109;29;20031;-70
2021/10/02 09:03:21;;;;;;;4.22;2.78;;;;;;;18.12;43.91;95418.28;10237613;28;20023;-71
2021/10/02 09:08:21;;;;;;;5.78;3.40;;;;;;;17.69;44.61;95418.59;10237198;29;20649;-69
2021/10/02 09:13:21;;;;;;;5.85;2.50;;;;;;;17.96;44.32;95420.53;10237434;29;20038;-70
2021/10/02 09:18:24;;;;;;;4.13;3.07;;;;;;;18.97;42.72;95416.97;10237060;28;20031;-73
2021/10/02 09:23:24;;;;;;;6.47;2.75;;;;;;;19.42;40.41;95408.72;10213483;28;20271;-73
2021/10/02 09:28:37;;;;;;;5.47;2.97;;;;;;;19.95;39.61;95387.97;10198149;29;20036;-75
2021/10/02 09:33:44;;;;;;;4.07;2.63;;;;;;;20.54;39.82;95392.22;10196773;29;20074;-69
2021/10/02 09:38:52;;;;;;;4.87;2.30;;;;;;;21.94;36.52;95383.75;10181397;29;20028;-72
2021/10/02 09:43:57;;;;;;;4.30;2.22;;;;;;;23.11;34.18;95382.25;10180991;29;20268;-69
2021/10/02 09:48:58;;;;;;;4.20;2.35;;;;;;;23.21;34.85;95370.91;10196791;29;20040;-70
2021/10/02 09:53:58;;;;;;;6.15;2.58;;;;;;;23.93;33.47;95365.09;10196931;29;20660;-72
2021/10/02 09:58:59;;;;;;;8.43;2.17;;;;;;;23.64;33.64;95361.38;10196303;29;20020;-73
2021/10/02 10:03:59;;;;;;;4.22;2.10;;;;;;;23.09;33.66;95357.91;10243081;28;20034;-72
2021/10/02 10:09:12;;;;;;;6.20;2.13;;;;;;;25.79;30.54;95345.94;10235956;29;20555;-68
2021/10/02 10:14:23;;;;;;;2.83;1.85;;;;;;;29.34;27.00;95334.38;10235613;28;20037;-69
2021/10/02 10:19:26;;;;;;;4.35;1.95;;;;;;;30.78;24.23;95336.22;10236432;28;20023;-71
2021/10/02 10:24:26;;;;;;;3.90;1.75;;;;;;;30.66;24.14;95333.81;10235856;28;20412;-70
2021/10/02 10:29:41;;;;;;;6.53;1.93;;;;;;;31.53;23.63;95327.34;10235191;28;20027;-74
2021/10/02 10:34:42;;;;;;;3.10;1.70;;;;;;;32.03;22.41;95332.16;10237864;28;20086;-74
2021/10/02 10:39:43;;;;;;;8.43;1.98;;;;;;;32.19;22.31;95311.50;10235125;28;20050;-69
2021/10/02 10:44:43;;;;;;;7.45;1.75;;;;;;;32.02;22.40;95310.31;10235827;29;20039;-70
2021/10/02 10:49:45;;;;;;;4.68;1.60;;;;;;;31.65;23.04;95300.41;10237612;28;20015;-69
2021/10/02 10:54:51;;;;;;;8.18;2.85;;;;;;;32.04;22.90;95300.38;10242352;28;20170;-74
2021/10/02 10:59:52;;;;;;;4.75;2.10;;;;;;;31.32;22.36;95294.78;10255236;28;20517;-75
2021/10/02 11:04:52;;;;;;;4.00;1.63;;;;;;;31.74;21.85;95284.13;10238808;28;20130;-72
2021/10/02 11:09:52;;;;;;;4.50;1.90;;;;;;;29.91;23.61;95278.69;10240259;28;20270;-71
2021/10/02 11:14:54;;;;;;;3.33;2.10;;;;;;;26.49;25.96;95286.50;10241465;28;20832;-70
2021/10/02 11:19:55;;;;;;;5.57;2.45;;;;;;;24.87;28.34;95277.16;10216305;29;20031;-74
2021/10/02 11:24:55;;;;;;;5.37;2.50;;;;;;;22.80;30.86;95277.44;10219128;28;20469;-70
2021/10/02 11:30:11;;;;;;;5.78;2.65;;;;;;;21.19;33.26;95289.28;10252610;28;20299;-70
2021/10/02 11:35:16;;;;;;;5.88;2.45;;;;;;;19.59;35.93;95283.41;10240432;29;20138;-73
2021/10/02 11:40:32;;;;;;;3.90;2.70;;;;;;;19.34;36.78;95273.22;10234415;29;20059;-72
2021/10/02 11:45:33;;;;;;;5.78;2.40;;;;;;;18.42;37.56;95274.50;10219089;28;20035;-73
2021/10/02 11:50:34;;;;;;;4.43;2.60;;;;;;;18.35;38.49;95274.13;10258266;28;20042;-73
2021/10/02 11:55:40;;;;;;;5.10;2.78;;;;;;;18.09;38.72;95269.28;10258600;28;20058;-75
2021/10/02 12:00:43;;;;;;;8.27;4.00;;;;;;;18.15;39.22;95273.50;10244144;28;20027;-71
2021/10/02 12:05:46;;;;;;;4.47;2.35;;;;;;;18.06;39.05;95278.06;10254843;28;20034;-69
2021/10/02 12:10:54;;;;;;;3.58;2.08;;;;;;;17.68;39.57;95262.84;10239192;28;20031;-73
2021/10/02 12:16:09;;;;;;;6.97;3.30;;;;;;;17.50;39.98;95272.72;10221596;29;20053;-67
2021/10/02 12:21:56;;;;;;;4.90;2.63;;;;;;;17.36;40.62;95266.50;10222306;29;20035;-73
2021/10/02 12:27:04;;;;;;;8.13;2.92;;;;;;;17.53;41.01;95257.72;10195865;28;20086;-69
2021/10/02 12:32:06;;;;;;;7.90;2.50;;;;;;;17.39;40.80;95263.19;10257758;28;20047;-72
2021/10/02 12:37:29;;;;;;;8.40;2.85;;;;;;;17.32;41.32;95260.88;10194563;29;20063;-75
2021/10/02 12:42:33;;;;;;;13.70;2.63;;;;;;;17.30;41.02;95262.28;10215181;28;20047;-77
2021/10/02 12:47:34;;;;;;;5.15;2.80;;;;;;;17.48;40.87;95261.34;10198410;29;20036;-71
2021/10/02 12:52:35;;;;;;;5.75;2.58;;;;;;;17.39;41.19;95257.75;10198035;29;20036;-75
2021/10/02 12:57:36;;;;;;;3.22;2.80;;;;;;;17.25;41.51;95258.56;10198038;29;20410;-77
2021/10/02 13:02:42;;;;;;;5.85;3.75;;;;;;;17.34;41.81;95252.41;10198193;29;20046;-74
2021/10/02 13:07:47;;;;;;;7.00;3.08;;;;;;;17.39;41.60;95255.03;10180895;29;20033;-76
2021/10/02 13:13:02;;;;;;;6.03;3.40;;;;;;;17.37;42.83;95252.63;10196733;29;20348;-74
2021/10/02 13:18:04;;;;;;;13.27;3.10;;;;;;;17.31;42.85;95261.19;10196961;29;20530;-76
2021/10/02 13:23:11;;;;;;;4.63;2.92;;;;;;;17.18;43.02;95262.78;10210704;29;20033;-69
2021/10/02 13:28:27;;;;;;;6.97;3.05;;;;;;;17.16;43.00;95268.50;10235810;29;20520;-72
2021/10/02 13:33:27;;;;;;;4.70;3.20;;;;;;;17.27;43.87;95257.44;10191112;29;20043;-69
2021/10/02 13:38:33;;;;;;;6.05;3.17;;;;;;;17.25;43.86;95260.47;10196479;29;20466;-73
2021/10/02 13:43:48;;;;;;;11.98;3.20;;;;;;;17.38;43.05;95272.44;10231493;29;20281;-76
2021/10/02 13:48:49;;;;;;;6.00;2.90;;;;;;;17.36;43.78;95266.50;10235322;29;20466;-78
2021/10/02 13:53:49;;;;;;;9.80;3.47;;;;;;;17.22;44.87;95258.38;10235729;28;20031;-72
2021/10/02 13:58:50;;;;;;;7.50;3.75;;;;;;;17.09;44.80;95251.81;10235657;28;20093;-75
2021/10/02 14:03:50;;;;;;;5.78;3.63;;;;;;;16.92;45.50;95257.84;10231302;29;20553;-71
2021/10/02 14:08:51;;;;;;;5.23;3.73;;;;;;;16.85;45.84;95255.47;10233934;28;20058;-76
2021/10/02 14:13:51;;;;;;;7.60;3.50;;;;;;;16.84;46.06;95264.75;10234871;29;20035;-77
2021/10/02 14:18:52;;;;;;;7.10;3.55;;;;;;;16.86;45.98;95251.69;10234667;29;20027;-74
2021/10/02 14:23:52;;;;;;;10.35;3.92;;;;;;;16.79;46.64;95256.69;10235243;28;20023;-75
2021/10/02 14:28:53;;;;;;;12.60;4.32;;;;;;;16.80;46.86;95257.50;10233946;29;20098;-71
2021/10/02 14:33:53;;;;;;;19.40;3.30;;;;;;;16.64;46.01;95274.06;10220184;29;20486;-70
2021/10/02 14:38:53;;;;;;;7.57;3.03;;;;;;;16.66;46.58;95266.44;10195333;29;20482;-71
2021/10/02 14:43:54;;;;;;;4.37;2.80;;;;;;;16.60;46.48;95272.25;10219199;29;20345;-75
2021/10/02 14:48:55;;;;;;;4.63;2.57;;;;;;;16.58;43.99;95272.53;10235485;28;20286;-73
2021/10/02 14:53:57;;;;;;;4.25;2.58;;;;;;;16.53;43.14;95268.00;10242807;28;20777;-72
2021/10/02 14:59:01;;;;;;;4.55;3.10;;;;;;;16.47;44.11;95274.63;10242178;29;20046;-69
2021/10/02 15:04:02;;;;;;;4.93;2.55;;;;;;;16.34;43.67;95278.91;10242821;28;20038;-69
2021/10/02 15:09:03;;;;;;;3.78;2.40;;;;;;;16.31;43.75;95276.78;10240391;29;20168;-70
2021/10/02 15:14:04;;;;;;;13.48;4.38;;;;;;;16.21;44.07;95285.91;10225527;29;20031;-68
2021/10/02 15:19:06;;;;;;;9.35;2.55;;;;;;;16.16;44.46;95279.72;10240771;28;20486;-72
2021/10/02 15:24:08;;;;;;;5.15;2.88;;;;;;;16.01;45.49;95291.63;10256180;28;20145;-72
2021/10/02 15:29:09;;;;;;;5.78;2.85;;;;;;;15.86;45.38;95289.94;10239800;29;20039;-73
2021/10/02 15:34:10;;;;;;;5.30;2.83;;;;;;;15.77;45.92;95292.47;10239891;28;20509;-73
2021/10/02 15:39:11;;;;;;;6.30;3.85;;;;;;;15.73;46.55;95292.25;10256220;28;20034;-70
2021/10/02 15:44:12;;;;;;;14.50;4.20;;;;;;;15.63;46.24;95294.28;10256662;28;20058;-71
2021/10/02 15:49:12;;;;;;;8.25;4.38;;;;;;;15.58;46.92;95299.78;10241087;28;20442;-69
2021/10/02 15:54:13;;;;;;;6.47;3.70;;;;;;;15.37;47.47;95314.38;10238864;28;20042;-72
2021/10/02 15:59:17;;;;;;;9.77;4.07;;;;;;;15.10;48.28;95308.72;10222403;28;20502;-73
2021/10/02 16:04:55;;;;;;;4.97;3.88;;;;;;;14.97;49.13;95315.63;10237512;29;20462;-71
2021/10/02 16:09:57;;;;;;;12.60;4.77;;;;;;;14.83;49.61;95318.19;10236038;28;21095;-74
2021/10/02 16:15:02;;;;;;;9.23;4.05;;;;;;;14.63;50.86;95320.00;10250040;28;20322;-75
2021/10/02 16:20:04;;;;;;;9.93;4.60;;;;;;;14.32;54.04;95316.72;10229941;28;20031;-73
2021/10/02 16:25:05;;;;;;;11.18;4.40;;;;;;;14.32;56.71;95338.38;10238859;28;20118;-71
2021/10/02 16:30:08;;;;;;;7.88;4.53;;;;;;;14.00;61.01;95345.06;10239290;28;20051;-70
2021/10/02 16:35:09;;;;;;;6.63;4.50;;;;;;;13.80;64.84;95346.78;10236674;28;20143;-70
2021/10/02 16:40:11;;;;;;;15.48;7.03;;;;;;;13.66;67.54;95348.47;10242687;28;20043;-70
2021/10/02 16:45:15;;;;;;;8.00;4.88;;;;;;;13.62;70.21;95363.63;10237959;29;20540;-73
2021/10/02 16:50:18;;;;;;;14.25;6.32;;;;;;;13.44;73.69;95362.34;10244164;28;20061;-69
2021/10/02 16:55:19;;;;;;;7.70;5.60;;;;;;;13.29;76.22;95371.28;10230330;28;20031;-74
2021/10/02 17:00:24;;;;;;;7.47;3.83;;;;;;;13.21;79.00;95374.53;10256017;28;20027;-74
2021/10/02 17:05:25;;;;;;;15.73;8.02;;;;;;;12.95;82.94;95372.69;10247111;28;20031;-70
2021/10/02 17:10:25;;;;;;;7.95;5.10;;;;;;;12.82;84.15;95384.84;10203759;28;20027;-70
2021/10/02 17:15:26;;;;;;;12.20;5.40;;;;;;;12.83;81.53;95397.25;10196338;29;20422;-71
2021/10/02 17:20:27;;;;;;;9.23;5.32;;;;;;;12.71;79.41;95399.44;10213660;29;20493;-74
2021/10/02 17:25:27;;;;;;;12.52;4.88;;;;;;;12.55;76.82;95401.28;10236657;28;20035;-74
2021/10/02 17:30:28;;;;;;;8.90;5.63;;;;;;;12.39;78.80;95405.88;10236380;28;20051;-77
2021/10/02 17:35:29;;;;;;;10.68;6.07;;;;;;;12.21;79.66;95403.66;10245972;28;20186;-72
2021/10/02 17:40:30;;;;;;;10.15;6.32;;;;;;;12.09;80.94;95406.63;10251669;28;20035;-72
2021/10/02 17:45:31;;;;;;;8.45;5.00;;;;;;;11.94;81.80;95402.81;10235317;28;20035;-70
2021/10/02 17:50:35;;;;;;;14.90;5.72;;;;;;;11.94;79.93;95408.22;10236741;28;20031;-70
2021/10/02 17:55:36;;;;;;;8.52;4.80;;;;;;;11.94;79.56;95421.69;10235248;29;20030;-70
2021/10/02 18:00:39;;;;;;;7.90;4.78;;;;;;;11.79;78.74;95425.09;10197393;29;20106;-74
2021/10/02 18:05:39;;;;;;;9.57;5.28;;;;;;;11.73;79.97;95428.81;10219941;29;20472;-70
2021/10/02 18:10:40;;;;;;;6.93;5.35;;;;;;;11.56;81.77;95439.78;10234865;29;20031;-69
2021/10/02 18:15:41;;;;;;;7.78;5.00;;;;;;;11.43;83.91;95441.06;10234717;28;20027;-70
2021/10/02 18:20:42;;;;;;;7.40;5.77;;;;;;;11.38;86.13;95449.09;10231401;28;20023;-75
2021/10/02 18:30:43;;;;;;;11.32;5.05;;;;;;;10.99;90.42;95453.97;10243609;28;20125;-67
2021/10/02 18:35:44;;;;;;;8.23;5.50;;;;;;;11.00;88.84;95448.34;10239335;28;20131;-73
2021/10/02 18:40:45;;;;;;;8.90;4.38;;;;;;;11.00;86.85;95458.28;10229549;28;20035;-69
2021/10/02 18:45:45;;;;;;;7.88;4.82;;;;;;;11.00;85.72;95469.84;10216655;28;20425;-69
2021/10/02 18:50:46;;;;;;;11.70;5.57;;;;;;;11.04;85.30;95478.22;10223671;28;20024;-73
2021/10/02 18:55:47;;;;;;;8.65;4.63;;;;;;;11.08;83.87;95477.44;10245370;28;20035;-73
2021/10/02 19:00:48;;;;;;;5.45;4.00;;;;;;;10.98;85.74;95479.25;10243314;28;20453;-75
2021/10/02 19:05:48;;;;;;;6.22;4.47;;;;;;;10.95;86.19;95483.25;10242802;28;20027;-74
2021/10/02 19:10:49;;;;;;;6.72;4.35;;;;;;;10.82;89.42;95492.56;10241840;28;20067;-73
2021/10/02 19:15:49;;;;;;;10.63;5.10;;;;;;;10.67;92.67;95498.59;10241089;28;20024;-70
2021/10/02 19:20:50;;;;;;;11.40;4.47;;;;;;;10.45;95.45;95495.97;10241039;28;20020;-70
2021/10/02 19:25:54;;;;;;;9.50;4.40;;;;;;;10.45;98.61;95489.78;10207483;28;20050;-69
2021/10/02 19:30:55;;;;;;;13.25;3.72;;;;;;;10.41;97.67;95489.50;10233947;29;20048;-69
2021/10/02 19:35:57;;;;;;;10.23;4.40;;;;;;;10.29;98.55;95486.13;10200231;29;20413;-68
2021/10/02 19:40:58;;;;;;;8.60;5.63;;;;;;;10.21;100.00;95482.81;10198028;29;20074;-70
2021/10/02 19:45:59;;;;;;;8.68;4.70;;;;;;;10.14;100.00;95478.69;10240123;29;20023;-69
2021/10/02 19:50:59;;;;;;;8.93;4.63;;;;;;;10.09;99.68;95477.56;10240720;28;20081;-73
2021/10/02 19:55:59;;;;;;;8.27;4.90;;;;;;;10.01;100.00;95478.00;10239303;28;20502;-70
2021/10/02 20:01:00;;;;;;;8.90;4.40;;;;;;;9.92;100.00;95483.03;10241117;28;20308;-70
2021/10/02 20:06:00;;;;;;;6.68;4.80;;;;;;;9.87;100.00;95487.53;10224916;28;20310;-70
2021/10/02 20:11:02;;;;;;;10.32;4.72;;;;;;;9.98;100.00;95480.41;10216127;29;20185;-77
2021/10/02 20:16:02;;;;;;;7.72;4.50;;;;;;;9.81;100.00;95486.66;10199369;29;20023;-70
2021/10/02 20:21:03;;;;;;;11.23;4.80;;;;;;;9.86;100.00;95481.31;10221710;29;20039;-71
2021/10/02 20:26:04;;;;;;;11.05;4.40;;;;;;;9.88;100.00;95487.28;10236509;29;20428;-78
2021/10/02 20:31:04;;;;;;;5.78;4.47;;;;;;;9.73;100.00;95487.06;10216408;28;20051;-70
2021/10/02 20:36:05;;;;;;;10.27;4.25;;;;;;;9.58;100.00;95482.31;10198394;29;20419;-72
2021/10/02 20:41:05;;;;;;;6.32;4.55;;;;;;;9.54;100.00;95483.88;10197610;29;20039;-72
2021/10/02 20:46:06;;;;;;;10.07;3.93;;;;;;;9.48;100.00;95487.56;10197959;29;20032;-74
2021/10/02 20:51:08;;;;;;;5.77;3.87;;;;;;;9.47;100.00;95485.91;10207740;29;20291;-76
2021/10/02 20:56:10;;;;;;;7.53;3.60;;;;;;;9.43;100.00;95490.16;10240696;28;20498;-71
2021/10/02 21:01:11;;;;;;;10.27;4.07;;;;;;;9.40;100.00;95489.59;10252967;28;20110;-69
2021/10/02 21:06:13;;;;;;;6.53;4.32;;;;;;;9.39;100.00;95485.28;10254527;28;20023;-71
2021/10/02 21:11:14;;;;;;;7.30;4.35;;;;;;;9.38;100.00;95486.34;10234925;28;20027;-70
2021/10/02 21:16:14;;;;;;;12.00;4.50;;;;;;;9.45;100.00;95472.75;10236818;28;20394;-71
2021/10/02 21:21:14;;;;;;;8.13;4.07;;;;;;;9.34;100.00;95479.84;10235011;28;20095;-70
2021/10/02 21:26:18;;;;;;;5.93;4.55;;;;;;;9.30;100.00;95488.63;10236355;29;20724;-72
2021/10/02 21:31:20;;;;;;;5.35;3.67;;;;;;;9.17;100.00;95487.91;10236961;28;20054;-74
2021/10/02 21:36:21;;;;;;;7.13;4.40;;;;;;;8.96;100.00;95476.06;10236490;29;20043;-74
2021/10/02 21:41:22;;;;;;;13.20;4.63;;;;;;;8.91;100.00;95475.97;10235887;29;20516;-72
2021/10/02 21:46:22;;;;;;;11.30;4.93;;;;;;;8.82;100.00;95467.53;10236482;29;20027;-75
2021/10/02 21:51:24;;;;;;;7.97;4.53;;;;;;;8.61;100.00;95458.38;10236036;28;20031;-74
2021/10/02 21:56:26;;;;;;;7.72;4.43;;;;;;;8.52;100.00;95454.44;10235314;29;20027;-70
2021/10/02 22:01:31;;;;;;;16.38;6.18;;;;;;;8.50;100.00;95459.25;10236206;29;20023;-73
2021/10/02 22:06:37;;;;;;;8.55;4.88;;;;;;;8.43;100.00;95469.25;10235384;28;20313;-69
2021/10/02 22:11:37;;;;;;;6.20;4.75;;;;;;;8.39;100.00;95472.41;10235996;28;20476;-74
2021/10/02 22:16:40;;;;;;;9.52;4.50;;;;;;;8.13;100.00;95470.34;10236047;28;20037;-72
2021/10/02 22:21:40;;;;;;;11.98;4.95;;;;;;;8.21;100.00;95473.44;10234434;29;20027;-72
2021/10/02 22:26:54;;;;;;;6.38;4.13;;;;;;;8.14;100.00;95471.97;10235394;29;20031;-76
2021/10/02 22:31:55;;;;;;;10.07;4.50;;;;;;;8.09;100.00;95466.50;10237121;28;20050;-70
2021/10/02 22:36:55;;;;;;;8.90;5.15;;;;;;;8.10;100.00;95474.28;10219158;29;20039;-71
2021/10/02 22:41:57;;;;;;;6.68;4.80;;;;;;;8.15;100.00;95477.06;10235616;29;20541;-72
2021/10/02 22:46:59;;;;;;;8.50;4.72;;;;;;;8.14;100.00;95469.28;10235419;29;20401;-72
2021/10/02 22:52:01;;;;;;;10.15;5.18;;;;;;;8.07;100.00;95477.47;10236866;28;20520;-73
2021/10/02 22:57:03;;;;;;;6.65;4.90;;;;;;;8.00;100.00;95480.28;10235436;29;20023;-73
2021/10/02 23:02:03;;;;;;;12.80;6.25;;;;;;;7.84;100.00;95486.38;10235872;28;20064;-69
2021/10/02 23:07:06;;;;;;;11.65;6.43;;;;;;;7.76;100.00;95495.59;10243626;28;20613;-71
2021/10/02 23:12:07;;;;;;;19.10;7.35;;;;;;;7.79;100.00;95495.13;10242494;28;20023;-72
2021/10/02 23:17:08;;;;;;;11.32;7.68;;;;;;;7.69;100.00;95495.72;10242734;29;20015;-72
2021/10/02 23:22:11;;;;;;;11.30;6.30;;;;;;;7.69;100.00;95517.13;10241653;29;20082;-72
2021/10/02 23:27:13;;;;;;;10.27;7.47;;;;;;;7.74;100.00;95508.38;10241450;28;20032;-69
2021/10/02 23:32:16;;;;;;;12.18;7.38;;;;;;;7.82;100.00;95512.56;10241755;28;20082;-68
2021/10/02 23:37:19;;;;;;;14.95;6.63;;;;;;;7.68;100.00;95501.31;10242568;28;20019;-74
2021/10/02 23:42:19;;;;;;;13.00;6.60;;;;;;;7.65;100.00;95507.94;10257530;28;20027;-72
2021/10/02 23:47:19;;;;;;;11.98;6.97;;;;;;;7.67;100.00;95510.38;10240437;28;20497;-71
2021/10/02 23:52:22;;;;;;;17.60;7.38;;;;;;;7.68;100.00;95520.03;10240886;29;20027;-68
2021/10/02 23:57:31;;;;;;;11.02;7.05;;;;;;;7.57;100.00;95510.16;10241136;28;20027;-66
